Flight Track Log - Related Links

Times and Time Zones

All times are in EDT time to prevent confusion due to time zone crossing. See the CPT7717 flight status page for this flight to view local times or setup timezone preferences in your user account.

Time Position Orientation Groundspeed Altitude Reporting Facility
EDT Latitude Longitude Course Direction KTS MPH feet Rate Location/Type
Thu 07:40:16 PM 21.1667 -157.0833 242° Southwest 110 127 2,600  Level Honolulu Center
Thu 07:41:16 PM 21.1500 -157.1167 242° Southwest 120 138 3,600 700 Climbing Honolulu Center
Thu 07:42:16 PM 21.1333 -157.1500 242° Southwest 130 150 4,000 198 Climbing Honolulu Center
Thu 07:43:17 PM 21.1333 -157.1833 270° West 130 150 4,000  Level Honolulu Center
Thu 07:44:16 PM 21.1167 -157.2333 250° West 150 173 4,000  Level Honolulu Center
Thu 07:45:17 PM 21.1167 -157.2833 270° West 160 184 4,000  Level Honolulu Center
Thu 07:46:16 PM 21.1167 -157.3167 270° West 130 150 4,000 50 Level Honolulu Center
Thu 07:47:17 PM 21.1333 -157.3667 290° West 140 161 4,100  Climbing Honolulu Center
Thu 07:48:17 PM 21.1500 -157.4000 298° West 140 161 4,000 -200 Descending Honolulu Center
Thu 07:49:17 PM 21.1667 -157.4333 298° West 150 173 3,700 -400 Descending Honolulu Center
Thu 07:50:17 PM 21.1833 -157.4833 290° West 150 173 3,200 -446 Descending Honolulu Center
Thu 07:51:18 PM 21.1833 -157.5333 270° West 150 173 2,800 -400 Descending Honolulu Center
Thu 07:52:17 PM 21.2000 -157.5667 298° West 150 173 2,400 -353 Descending Honolulu Center
Thu 07:53:17 PM 21.2167 -157.6167 290° West 160 184 2,100 -149 Descending Honolulu Center
Thu 07:54:18 PM 21.2333 -157.6500 298° West 140 161 2,100  Level Honolulu Center
Thu 07:55:18 PM 21.2333 -157.7000 270° West 140 161 2,100  Level Honolulu Center
Thu 07:56:18 PM 21.2500 -157.7333 298° West 150 173 2,100  Level Honolulu Center
Thu 07:57:18 PM 21.2667 -157.7833 290° West 140 161 2,100  Level Honolulu Center
Thu 07:58:18 PM 21.2833 -157.8167 298° West 160 184 2,100 -350 Level Honolulu Center
Thu 07:59:18 PM 21.3167 -157.8500 317° Northwest 130 150 1,400 -800 Descending Honolulu Center
Thu 08:00:18 PM 21.3333 -157.8833 298° West 110 127 500 -900 Descending Honolulu Center

Login

Don't have an account? Register now (free) for customized features, flight alerts, and more!